Time;durP1;ratioP1;P1;durP2;ratioP2;P2;SDS_P1;SDS_P2;PMS_P1;PMS_P2;Temp;Humidity;BMP_temperature;BMP_pressure;BME280_temperature;BME280_humidity;BME280_pressure;Samples;Min_cycle;Max_cycle;Signal;HPM_P1;HPM_P2
2022/05/08 00:01:35;;;;;;;120.15;108.75;;;13.50;68.30;;;;;;4981401;28;20046;-78
2022/05/08 00:04:03;;;;;;;120.68;108.90;;;13.40;68.10;;;;;;5015050;28;20059;-78
2022/05/08 00:06:30;;;;;;;118.93;107.30;;;13.40;68.10;;;;;;4997675;28;20050;-78
2022/05/08 00:08:58;;;;;;;120.10;108.57;;;13.40;68.10;;;;;;4997008;28;20531;-78
2022/05/08 00:11:25;;;;;;;119.40;108.13;;;13.40;68.10;;;;;;4997311;28;20055;-78
2022/05/08 00:13:53;;;;;;;120.45;108.75;;;13.40;68.10;;;;;;5015031;28;20077;-78
2022/05/08 00:16:20;;;;;;;119.97;108.05;;;13.30;68.10;;;;;;4997576;28;20129;-78
2022/05/08 00:18:47;;;;;;;119.13;107.60;;;13.30;68.10;;;;;;5014833;28;20061;-78
2022/05/08 00:21:13;;;;;;;117.90;106.25;;;13.30;68.20;;;;;;4997313;28;20477;-78
2022/05/08 00:23:40;;;;;;;118.35;106.45;;;13.20;68.10;;;;;;4996994;28;20058;-78
2022/05/08 00:26:08;;;;;;;117.28;105.57;;;13.20;68.10;;;;;;4997775;28;20046;-78
2022/05/08 00:28:35;;;;;;;119.18;107.70;;;13.10;67.90;;;;;;4997130;28;20082;-78
2022/05/08 00:31:04;;;;;;;117.97;106.20;;;13.10;67.90;;;;;;4997387;28;20142;-78
2022/05/08 00:33:32;;;;;;;116.78;105.72;;;13.10;67.80;;;;;;4996176;28;20109;-78
2022/05/08 00:35:59;;;;;;;117.13;105.97;;;13.10;67.70;;;;;;4997261;28;20053;-78
2022/05/08 00:38:26;;;;;;;118.30;106.25;;;13.00;67.70;;;;;;4996691;28;20129;-78
2022/05/08 00:40:53;;;;;;;118.78;107.18;;;13.00;67.70;;;;;;4997075;28;20054;-78
2022/05/08 00:43:32;;;;;;;116.78;105.43;;;13.00;67.70;;;;;;4997418;28;20057;-78
2022/05/08 00:46:05;;;;;;;118.93;106.97;;;12.90;67.60;;;;;;5014798;28;20062;-78
2022/05/08 00:48:33;;;;;;;119.28;107.47;;;12.90;67.80;;;;;;4997028;28;20826;-78
2022/05/08 00:51:01;;;;;;;119.22;107.00;;;12.90;67.90;;;;;;5029694;28;20046;-78
2022/05/08 00:53:34;;;;;;;116.68;105.40;;;12.80;67.90;;;;;;4997007;28;20050;-78
2022/05/08 00:56:03;;;;;;;118.10;106.10;;;12.80;68.10;;;;;;4996387;28;20513;-78
2022/05/08 00:58:30;;;;;;;118.43;106.57;;;12.70;67.90;;;;;;4996417;28;20547;-78
2022/05/08 01:00:57;;;;;;;117.70;105.88;;;12.70;67.90;;;;;;4996571;28;20055;-78
2022/05/08 01:03:25;;;;;;;119.28;107.45;;;12.70;67.90;;;;;;4995160;28;20145;-78
2022/05/08 01:05:54;;;;;;;118.47;106.93;;;12.60;67.90;;;;;;5014748;28;20081;-78
2022/05/08 01:08:22;;;;;;;117.13;105.60;;;12.60;68.20;;;;;;5014130;28;20141;-78
2022/05/08 01:10:49;;;;;;;117.07;105.72;;;12.60;68.50;;;;;;4996405;28;20586;-78
2022/05/08 01:13:16;;;;;;;118.25;106.15;;;12.50;68.70;;;;;;4996458;28;20050;-78
2022/05/08 01:15:45;;;;;;;117.93;106.30;;;12.50;68.90;;;;;;4996120;28;20134;-78
2022/05/08 01:18:13;;;;;;;115.55;104.25;;;12.40;69.00;;;;;;4996552;28;20061;-78
2022/05/08 01:20:43;;;;;;;115.78;104.50;;;12.40;69.10;;;;;;5029450;28;20051;-78
2022/05/08 01:23:12;;;;;;;118.05;106.25;;;12.30;68.90;;;;;;5013134;28;20170;-78
2022/05/08 01:25:48;;;;;;;115.68;104.65;;;12.20;69.20;;;;;;4996757;28;20058;-78
2022/05/08 01:28:15;;;;;;;117.82;106.35;;;12.10;69.60;;;;;;5028913;28;20054;-78
2022/05/08 01:30:44;;;;;;;116.88;105.75;;;12.00;69.80;;;;;;4996599;28;20049;-78
2022/05/08 01:33:11;;;;;;;119.15;107.53;;;11.90;69.90;;;;;;5028472;28;20055;-78
2022/05/08 01:35:40;;;;;;;117.60;105.78;;;11.80;70.00;;;;;;4996246;28;20369;-78
2022/05/08 01:38:09;;;;;;;119.40;107.20;;;11.80;70.10;;;;;;4996262;28;20531;-78
2022/05/08 01:40:37;;;;;;;118.85;106.90;;;11.70;70.20;;;;;;5013729;28;20060;-78
2022/05/08 01:43:05;;;;;;;118.00;106.65;;;11.60;70.30;;;;;;4996400;28;20050;-78
2022/05/08 01:45:33;;;;;;;117.18;106.00;;;11.50;70.30;;;;;;5028430;28;20089;-78
2022/05/08 01:50:46;;;;;;;118.72;106.78;;;11.40;70.50;;;;;;5012519;28;20050;-78
2022/05/08 01:53:13;;;;;;;118.20;106.35;;;11.30;70.60;;;;;;4995568;28;20513;-78
2022/05/08 01:55:41;;;;;;;119.18;107.28;;;11.20;70.90;;;;;;5013666;28;20054;-78
2022/05/08 01:58:08;;;;;;;116.85;105.45;;;11.10;71.40;;;;;;4996026;28;20051;-78
2022/05/08 02:00:35;;;;;;;117.88;106.22;;;11.00;72.20;;;;;;5013510;28;20108;-78
2022/05/08 02:03:03;;;;;;;117.95;106.38;;;11.00;73.00;;;;;;5029025;28;20138;-78
2022/05/08 02:05:33;;;;;;;118.32;106.53;;;11.00;72.60;;;;;;4995700;28;20097;-78
2022/05/08 02:08:01;;;;;;;116.45;105.03;;;10.90;72.60;;;;;;4995257;28;20050;-78
2022/05/08 02:10:28;;;;;;;116.90;105.43;;;10.90;72.70;;;;;;4995627;28;20608;-78
2022/05/08 02:12:57;;;;;;;118.70;106.47;;;10.90;72.90;;;;;;5013792;28;20081;-77
2022/05/08 02:15:29;;;;;;;115.53;104.40;;;10.90;73.00;;;;;;5013448;28;20073;-78
2022/05/08 02:17:57;;;;;;;117.40;105.05;;;10.90;73.10;;;;;;4995325;28;20058;-78
2022/05/08 02:20:24;;;;;;;116.95;105.32;;;10.90;73.30;;;;;;5012798;28;20051;-78
2022/05/08 02:22:53;;;;;;;116.88;105.38;;;10.90;73.20;;;;;;4995611;28;20527;-78
2022/05/08 02:25:20;;;;;;;116.68;105.30;;;10.90;73.30;;;;;;4995476;28;20046;-78
2022/05/08 02:27:51;;;;;;;116.72;105.13;;;10.90;73.20;;;;;;4978911;28;20575;-78
2022/05/08 02:30:22;;;;;;;115.18;103.80;;;10.80;73.30;;;;;;5011872;28;20047;-78
2022/05/08 02:32:51;;;;;;;119.32;107.85;;;10.80;73.70;;;;;;4994921;28;20064;-78
2022/05/08 02:35:20;;;;;;;115.55;104.30;;;10.70;73.70;;;;;;4995446;28;20054;-78
2022/05/08 02:37:50;;;;;;;114.65;103.55;;;10.70;73.90;;;;;;4995538;28;20047;-78
2022/05/08 02:40:17;;;;;;;118.40;106.55;;;10.70;74.00;;;;;;4995239;28;20051;-78
2022/05/08 02:42:44;;;;;;;117.25;105.85;;;10.70;74.00;;;;;;4995260;28;20559;-78
2022/05/08 02:45:12;;;;;;;114.35;103.30;;;10.70;74.20;;;;;;4995353;28;20141;-78
2022/05/08 02:47:43;;;;;;;114.72;103.75;;;10.70;74.40;;;;;;5013087;28;20058;-78
2022/05/08 02:50:12;;;;;;;115.50;104.35;;;10.70;74.60;;;;;;5012608;28;20085;-78
2022/05/08 02:52:39;;;;;;;116.47;105.03;;;10.60;74.90;;;;;;4995477;28;20050;-78
2022/05/08 03:00:40;;;;;;;115.72;104.78;;;10.40;75.10;;;;;;5011208;28;20085;-78
2022/05/08 03:03:09;;;;;;;112.82;102.30;;;10.40;75.40;;;;;;4994890;28;20050;-78
2022/05/08 03:05:37;;;;;;;113.57;103.07;;;10.40;75.50;;;;;;4994847;28;20038;-78
2022/05/08 03:08:05;;;;;;;113.47;103.00;;;10.40;75.50;;;;;;5027750;28;20492;-78
2022/05/08 03:11:25;;;;;;;114.10;103.35;;;10.40;75.60;;;;;;4994429;28;20061;-78
2022/05/08 03:13:20;;;;;;;111.50;100.68;;;10.40;75.70;;;;;;4994409;28;20058;-78
2022/05/08 03:15:48;;;;;;;112.72;102.32;;;10.30;75.50;;;;;;5012582;28;20054;-78
2022/05/08 03:18:19;;;;;;;112.95;101.75;;;10.30;75.50;;;;;;4994670;28;20105;-78
2022/05/08 03:20:47;;;;;;;114.25;103.63;;;10.30;75.50;;;;;;4994409;28;20054;-78
2022/05/08 03:23:15;;;;;;;110.88;100.68;;;10.30;75.50;;;;;;5012370;28;20058;-78
2022/05/08 03:25:42;;;;;;;113.32;102.43;;;10.30;75.30;;;;;;4994366;28;20051;-78
2022/05/08 03:28:09;;;;;;;110.95;100.85;;;10.30;75.60;;;;;;4994498;28;20079;-78
2022/05/08 03:30:36;;;;;;;111.72;101.32;;;10.30;75.90;;;;;;4994850;28;20042;-78
2022/05/08 03:33:03;;;;;;;111.30;101.03;;;10.30;76.10;;;;;;5011792;28;20056;-78
2022/05/08 03:35:32;;;;;;;111.57;101.47;;;10.20;76.30;;;;;;4994589;28;20165;-78
2022/05/08 03:37:59;;;;;;;111.00;100.72;;;10.20;76.80;;;;;;4994426;28;20058;-78
2022/05/08 03:40:26;;;;;;;111.40;101.20;;;10.20;76.80;;;;;;5012227;28;20580;-78
2022/05/08 03:42:54;;;;;;;110.03;99.80;;;10.10;76.70;;;;;;4994286;28;20160;-78
2022/05/08 03:45:21;;;;;;;113.43;103.00;;;10.10;76.70;;;;;;4994142;28;20061;-78
2022/05/08 03:47:50;;;;;;;112.32;101.80;;;10.10;76.90;;;;;;4994001;28;20072;-78
2022/05/08 03:50:17;;;;;;;112.70;102.13;;;10.10;77.10;;;;;;4994263;28;20046;-78
2022/05/08 03:52:46;;;;;;;111.10;100.63;;;10.10;77.10;;;;;;4993643;28;20492;-78
2022/05/08 03:55:13;;;;;;;114.97;101.47;;;10.00;77.10;;;;;;4994326;28;20054;-78
2022/05/08 03:57:40;;;;;;;320.42;105.93;;;10.00;77.10;;;;;;4993729;28;20506;-78
2022/05/08 04:00:09;;;;;;;110.30;100.05;;;10.00;77.40;;;;;;4994123;28;20541;-78
2022/05/08 04:02:40;;;;;;;110.20;100.10;;;10.00;77.60;;;;;;5011826;28;20503;-78
2022/05/08 04:05:08;;;;;;;112.20;100.57;;;10.00;77.50;;;;;;5012051;28;20058;-78
2022/05/08 04:07:37;;;;;;;112.35;101.78;;;10.00;77.40;;;;;;5027339;28;20065;-78
2022/05/08 04:10:07;;;;;;;109.53;99.30;;;9.90;77.40;;;;;;4997156;28;20599;-78
2022/05/08 04:12:35;;;;;;;111.20;100.80;;;9.90;77.60;;;;;;4997629;28;20062;-78
2022/05/08 04:15:02;;;;;;;114.00;102.47;;;9.90;77.50;;;;;;4997354;28;20050;-78
2022/05/08 04:17:32;;;;;;;123.25;101.38;;;9.90;77.50;;;;;;4997136;28;20054;-78
2022/05/08 04:19:59;;;;;;;114.40;103.53;;;9.90;77.40;;;;;;5014810;28;20129;-78
2022/05/08 04:25:12;;;;;;;113.53;102.32;;;9.90;77.30;;;;;;5015041;28;20084;-78
2022/05/08 04:27:39;;;;;;;114.00;103.10;;;9.80;77.80;;;;;;4997311;28;20137;-78
2022/05/08 04:30:07;;;;;;;113.82;103.13;;;9.80;77.60;;;;;;4997518;28;20057;-78
2022/05/08 04:32:34;;;;;;;113.80;102.93;;;9.80;77.90;;;;;;4997182;28;20057;-78
2022/05/08 04:35:01;;;;;;;115.07;104.00;;;9.70;78.20;;;;;;4996951;28;20047;-78
2022/05/08 04:37:28;;;;;;;114.93;103.93;;;9.70;78.40;;;;;;5014669;28;20145;-78
2022/05/08 04:39:55;;;;;;;114.32;103.43;;;9.70;78.70;;;;;;4997018;28;20048;-78
2022/05/08 04:42:23;;;;;;;115.13;103.93;;;9.70;79.00;;;;;;4997314;28;20050;-78
2022/05/08 04:44:50;;;;;;;114.28;103.40;;;9.70;79.20;;;;;;4996965;28;20110;-78
2022/05/08 04:47:17;;;;;;;115.95;104.43;;;9.70;79.50;;;;;;4996695;28;20050;-78
2022/05/08 04:49:44;;;;;;;117.07;105.80;;;9.60;80.00;;;;;;4996946;28;20533;-77
2022/05/08 04:52:11;;;;;;;114.90;103.90;;;9.60;80.50;;;;;;5014413;28;20058;-77
2022/05/08 04:54:40;;;;;;;114.68;103.57;;;9.60;80.90;;;;;;4996754;28;20058;-77
2022/05/08 04:57:07;;;;;;;117.75;106.03;;;9.60;81.20;;;;;;4997005;28;20146;-77
2022/05/08 04:59:35;;;;;;;115.95;104.20;;;9.60;81.50;;;;;;4996572;28;20470;-77
2022/05/08 05:02:02;;;;;;;116.13;104.55;;;9.60;81.90;;;;;;5011569;28;20050;-77
2022/05/08 05:04:30;;;;;;;115.65;104.22;;;9.60;82.10;;;;;;5016158;28;20112;-77
2022/05/08 05:06:59;;;;;;;115.72;104.43;;;9.60;82.30;;;;;;5013543;28;20141;-77
2022/05/08 05:09:26;;;;;;;116.43;104.57;;;9.60;82.60;;;;;;5016554;28;20456;-77
2022/05/08 05:11:53;;;;;;;116.18;104.75;;;9.60;82.70;;;;;;5032892;28;20058;-78
2022/05/08 05:14:20;;;;;;;115.72;103.90;;;9.60;82.80;;;;;;5012879;28;20104;-78
2022/05/08 05:16:48;;;;;;;117.32;105.72;;;9.60;82.80;;;;;;5015438;28;20053;-78
2022/05/08 05:19:15;;;;;;;117.57;105.80;;;9.60;83.00;;;;;;5013307;28;20541;-78
2022/05/08 05:21:42;;;;;;;118.78;107.00;;;9.60;83.00;;;;;;5033143;28;20520;-77
2022/05/08 05:24:09;;;;;;;115.45;104.13;;;9.60;83.20;;;;;;5032372;28;20497;-77
2022/05/08 05:26:36;;;;;;;116.15;104.85;;;9.60;83.20;;;;;;5015123;28;20046;-78
2022/05/08 05:29:03;;;;;;;117.05;105.43;;;9.60;83.50;;;;;;5015857;28;20053;-78
2022/05/08 05:31:30;;;;;;;115.53;103.95;;;9.70;83.80;;;;;;5015343;28;20050;-78
2022/05/08 05:33:58;;;;;;;116.90;105.40;;;9.60;83.90;;;;;;5014871;28;20054;-78
2022/05/08 05:36:25;;;;;;;115.15;103.45;;;9.70;84.50;;;;;;5031863;28;20531;-77
2022/05/08 05:38:52;;;;;;;115.22;103.53;;;9.60;84.70;;;;;;5039389;28;20150;-77
2022/05/08 05:41:19;;;;;;;114.43;102.82;;;9.70;85.00;;;;;;5012927;28;20503;-77
2022/05/08 05:43:46;;;;;;;114.40;102.63;;;9.70;85.20;;;;;;5015846;28;20052;-77
2022/05/08 05:48:59;;;;;;;112.68;101.32;;;9.70;85.70;;;;;;5033395;28;20643;-77
2022/05/08 05:51:26;;;;;;;114.13;102.75;;;9.70;85.60;;;;;;5015599;28;20128;-77
2022/05/08 05:53:54;;;;;;;115.45;103.68;;;9.70;86.00;;;;;;5014903;28;20053;-77
2022/05/08 05:56:21;;;;;;;116.53;104.82;;;9.80;86.10;;;;;;5014294;28;20050;-77
2022/05/08 05:58:48;;;;;;;113.72;102.47;;;9.70;86.10;;;;;;5039787;28;20163;-77
2022/05/08 06:01:15;;;;;;;112.20;101.47;;;9.80;85.90;;;;;;5030485;28;20379;-77
2022/05/08 06:03:42;;;;;;;113.32;102.25;;;9.80;85.70;;;;;;5032542;28;20492;-77
2022/05/08 06:06:10;;;;;;;116.22;104.72;;;9.80;85.40;;;;;;5042021;28;20056;-77
2022/05/08 06:08:37;;;;;;;114.80;103.57;;;9.90;85.80;;;;;;5013335;28;20078;-77
2022/05/08 06:11:04;;;;;;;115.40;104.30;;;9.90;86.20;;;;;;5032370;28;20049;-77
2022/05/08 06:13:32;;;;;;;114.40;103.45;;;9.90;86.10;;;;;;5050348;28;20137;-77
2022/05/08 06:15:59;;;;;;;111.90;101.03;;;9.90;86.70;;;;;;4932987;28;20056;-77
2022/05/08 06:18:26;;;;;;;112.35;101.30;;;9.90;86.10;;;;;;5025105;28;20041;-77
2022/05/08 06:20:55;;;;;;;111.53;100.65;;;10.00;86.20;;;;;;5026566;28;20041;-79
2022/05/08 06:23:24;;;;;;;112.75;101.65;;;10.00;86.30;;;;;;5023837;28;20057;-79
2022/05/08 06:25:53;;;;;;;110.63;100.00;;;10.00;86.30;;;;;;5024636;28;20096;-79
2022/05/08 06:28:20;;;;;;;111.53;100.50;;;10.10;85.90;;;;;;5023069;28;20053;-79
2022/05/08 06:30:48;;;;;;;110.90;100.25;;;10.10;85.90;;;;;;5015129;28;20058;-79
2022/05/08 06:33:15;;;;;;;114.50;103.13;;;10.10;85.80;;;;;;5015321;28;20128;-79
2022/05/08 06:35:42;;;;;;;112.43;101.43;;;10.20;85.90;;;;;;5016189;28;20042;-79
2022/05/08 06:38:10;;;;;;;111.93;100.72;;;10.20;85.70;;;;;;5015883;28;20469;-80
2022/05/08 06:40:39;;;;;;;113.00;101.70;;;10.30;85.40;;;;;;5019244;28;20435;-78
2022/05/08 06:43:06;;;;;;;114.05;102.80;;;10.30;85.60;;;;;;5021811;28;20568;-78
2022/05/08 06:45:33;;;;;;;114.10;103.03;;;10.30;85.90;;;;;;5025059;28;20141;-78
2022/05/08 06:48:05;;;;;;;113.03;101.25;;;10.40;85.50;;;;;;5037902;28;20053;-78
2022/05/08 06:50:33;;;;;;;113.88;102.80;;;10.40;85.70;;;;;;5043209;28;20141;-77
2022/05/08 06:53:00;;;;;;;111.30;100.40;;;10.50;85.50;;;;;;5031392;28;20136;-78
2022/05/08 06:55:28;;;;;;;111.45;100.20;;;10.50;85.30;;;;;;5022402;28;20582;-80
2022/05/08 06:57:56;;;;;;;111.75;100.75;;;10.60;84.90;;;;;;5015285;28;20108;-79
2022/05/08 07:03:07;;;;;;;112.90;101.97;;;10.70;83.00;;;;;;5029839;28;20046;-82
2022/05/08 07:05:36;;;;;;;112.15;100.72;;;10.70;82.40;;;;;;5039608;28;20046;-82
2022/05/08 07:08:03;;;;;;;112.07;101.35;;;10.80;81.90;;;;;;5018359;28;20482;-80
2022/05/08 07:10:30;;;;;;;111.47;100.68;;;10.80;81.50;;;;;;5026220;28;20515;-81
2022/05/08 07:12:58;;;;;;;113.03;101.72;;;10.90;81.30;;;;;;5025157;28;20570;-80
2022/05/08 07:15:25;;;;;;;114.93;102.95;;;10.90;81.20;;;;;;5041844;28;20147;-80
2022/05/08 07:17:52;;;;;;;112.10;100.82;;;11.00;81.10;;;;;;5014893;28;20054;-79
2022/05/08 07:20:19;;;;;;;112.80;101.68;;;11.00;83.10;;;;;;5014970;28;20560;-80
2022/05/08 07:22:46;;;;;;;112.72;101.88;;;11.10;83.20;;;;;;5015440;28;20050;-81
2022/05/08 07:25:13;;;;;;;111.10;100.68;;;11.10;82.00;;;;;;4998984;28;20061;-80
2022/05/08 07:27:42;;;;;;;111.15;99.97;;;11.20;81.10;;;;;;5017100;28;20997;-79
2022/05/08 07:30:11;;;;;;;113.63;102.82;;;11.30;81.10;;;;;;5014358;28;20057;-78
2022/05/08 07:32:38;;;;;;;113.45;101.95;;;11.30;80.30;;;;;;5031125;28;20054;-78
2022/05/08 07:37:50;;;;;;;114.25;103.13;;;11.40;79.10;;;;;;5014815;28;20042;-78
2022/05/08 07:40:17;;;;;;;112.57;101.43;;;11.50;78.80;;;;;;5015236;28;20129;-79
2022/05/08 07:42:44;;;;;;;111.72;101.10;;;11.50;78.80;;;;;;5032618;28;20046;-78
2022/05/08 07:45:14;;;;;;;111.47;100.68;;;11.60;78.60;;;;;;5018168;28;20116;-78
2022/05/08 07:47:40;;;;;;;113.60;102.50;;;11.60;77.90;;;;;;5017729;28;20049;-78
2022/05/08 07:50:09;;;;;;;111.85;101.00;;;11.70;77.00;;;;;;5018272;28;20070;-79
2022/05/08 07:52:38;;;;;;;111.60;100.60;;;11.70;76.70;;;;;;5018213;28;20050;-78
2022/05/08 07:55:07;;;;;;;113.00;102.20;;;11.80;77.10;;;;;;5017179;28;20050;-78
2022/05/08 07:57:34;;;;;;;112.28;101.65;;;11.90;77.30;;;;;;5014308;28;20046;-78
2022/05/08 08:00:03;;;;;;;112.88;101.97;;;11.90;77.10;;;;;;5023513;28;20056;-78
2022/05/08 08:02:31;;;;;;;114.35;103.75;;;12.00;76.30;;;;;;5007697;28;20049;-78
2022/05/08 08:04:58;;;;;;;115.53;104.22;;;12.10;75.80;;;;;;5005463;28;20528;-78
2022/05/08 08:07:25;;;;;;;114.78;103.72;;;12.10;75.20;;;;;;5007191;28;20053;-78
2022/05/08 08:09:53;;;;;;;112.78;102.18;;;12.20;74.60;;;;;;5024852;28;20060;-78
2022/05/08 08:12:21;;;;;;;117.03;105.65;;;12.20;74.30;;;;;;5007705;28;20046;-78
2022/05/08 08:14:48;;;;;;;112.22;101.53;;;12.30;74.30;;;;;;5022978;28;20081;-78
2022/05/08 08:17:15;;;;;;;113.65;102.63;;;12.30;73.30;;;;;;5011473;28;20130;-78
2022/05/08 08:19:43;;;;;;;112.07;101.53;;;12.30;72.60;;;;;;5014201;28;20050;-78
2022/05/08 08:22:10;;;;;;;112.95;102.07;;;12.40;72.30;;;;;;5013962;28;20116;-78
2022/05/08 08:24:37;;;;;;;113.63;102.78;;;12.40;72.60;;;;;;5011207;28;20046;-78
2022/05/08 08:27:04;;;;;;;115.85;104.70;;;12.40;72.90;;;;;;5009790;28;20054;-78
2022/05/08 08:29:31;;;;;;;116.30;105.40;;;12.50;73.00;;;;;;5013548;28;20046;-78
2022/05/08 08:31:58;;;;;;;114.45;103.70;;;12.60;73.00;;;;;;5011373;28;20131;-79
2022/05/08 08:34:26;;;;;;;112.45;101.93;;;12.60;72.90;;;;;;5025304;28;20179;-79
2022/05/08 08:36:55;;;;;;;116.07;104.88;;;12.70;72.90;;;;;;5008370;28;20050;-79
2022/05/08 08:39:22;;;;;;;115.13;103.88;;;12.70;72.60;;;;;;5032431;28;20062;-78
2022/05/08 08:42:00;;;;;;;115.88;104.88;;;12.80;72.20;;;;;;5036932;28;20371;-78
2022/05/08 08:50:04;;;;;;;114.75;103.93;;;12.90;72.10;;;;;;5027885;28;20058;-77
2022/05/08 08:52:32;;;;;;;115.45;104.47;;;13.00;71.70;;;;;;5024152;28;20142;-78
2022/05/08 08:55:00;;;;;;;115.70;104.78;;;13.00;72.10;;;;;;5021428;28;20054;-78
2022/05/08 08:57:27;;;;;;;117.30;105.60;;;13.00;71.90;;;;;;5028467;28;20042;-78
2022/05/08 08:59:54;;;;;;;115.45;104.43;;;13.10;71.40;;;;;;5005494;28;20137;-78
2022/05/08 09:02:21;;;;;;;115.60;104.80;;;13.20;71.90;;;;;;5007217;28;20531;-78
2022/05/08 09:04:50;;;;;;;116.60;105.68;;;13.20;72.10;;;;;;5006760;28;20054;-79
2022/05/08 09:07:42;;;;;;;116.30;105.28;;;13.30;72.30;;;;;;5025195;28;20133;-78
2022/05/08 09:10:15;;;;;;;113.97;103.35;;;13.40;71.10;;;;;;5012357;28;20050;-78
2022/05/08 09:12:44;;;;;;;114.85;104.10;;;13.40;70.50;;;;;;5021959;28;20136;-78
2022/05/08 09:15:25;;;;;;;113.97;103.22;;;13.40;70.70;;;;;;5014648;28;20060;-78
2022/05/08 09:17:58;;;;;;;119.78;108.60;;;13.50;70.90;;;;;;5014681;28;20512;-78
2022/05/08 09:20:39;;;;;;;117.82;106.35;;;13.60;69.60;;;;;;5017364;28;20057;-78
2022/05/08 09:23:18;;;;;;;118.72;106.03;;;13.60;69.20;;;;;;5022823;28;20074;-78
2022/05/08 09:25:51;;;;;;;114.47;103.90;;;13.70;69.30;;;;;;5010917;28;21199;-78
2022/05/08 09:28:19;;;;;;;115.25;104.18;;;13.70;69.30;;;;;;5016079;28;20042;-78
2022/05/08 09:31:00;;;;;;;116.40;105.13;;;13.80;69.40;;;;;;5031087;28;20141;-79
2022/05/08 09:33:29;;;;;;;118.90;107.50;;;13.90;70.40;;;;;;5007849;28;20108;-79
2022/05/08 09:35:58;;;;;;;117.85;106.82;;;14.00;69.60;;;;;;5008315;28;20053;-78
2022/05/08 09:41:23;;;;;;;115.88;104.95;;;14.00;69.50;;;;;;5130548;27;20385;-76
2022/05/08 09:43:50;;;;;;;114.45;103.80;;;14.20;68.90;;;;;;5130276;27;20052;-76
2022/05/08 09:46:20;;;;;;;117.88;105.32;;;14.20;67.90;;;;;;5130562;27;20052;-76
2022/05/08 09:48:47;;;;;;;117.03;106.32;;;14.30;67.40;;;;;;5128990;27;20044;-76
2022/05/08 09:51:15;;;;;;;115.78;104.90;;;14.30;66.80;;;;;;5128894;27;20046;-77
2022/05/08 09:53:48;;;;;;;116.00;105.25;;;14.40;67.00;;;;;;5128694;27;20128;-76
2022/05/08 09:56:15;;;;;;;114.53;103.95;;;14.50;67.20;;;;;;5125695;27;20056;-76
2022/05/08 09:58:44;;;;;;;114.55;103.93;;;14.50;67.40;;;;;;5131975;27;20050;-76
2022/05/08 10:01:13;;;;;;;115.45;104.70;;;14.60;66.90;;;;;;5111173;27;20048;-76
2022/05/08 10:03:43;;;;;;;115.43;105.00;;;14.60;66.20;;;;;;5128999;27;20082;-75
2022/05/08 10:06:10;;;;;;;117.10;106.30;;;14.70;66.40;;;;;;5127313;27;20051;-76
2022/05/08 10:08:38;;;;;;;114.18;103.93;;;14.70;66.50;;;;;;5111415;27;20115;-77
2022/05/08 10:14:03;;;;;;;115.47;104.88;;;14.90;67.10;;;;;;5111326;27;20044;-77
2022/05/08 10:16:54;;;;;;;114.90;104.20;;;14.90;67.00;;;;;;5124904;27;20136;-77
2022/05/08 10:19:55;;;;;;;115.43;104.93;;;15.10;66.80;;;;;;5124214;27;20602;-76
2022/05/08 10:22:23;;;;;;;115.57;104.85;;;15.10;67.20;;;;;;5111713;27;20048;-77
2022/05/08 10:24:56;;;;;;;116.97;105.97;;;15.20;64.70;;;;;;5116666;27;20415;-77
2022/05/08 10:27:29;;;;;;;115.93;105.25;;;15.30;64.50;;;;;;5108715;28;20124;-77
2022/05/08 10:30:31;;;;;;;116.40;105.75;;;15.30;64.40;;;;;;5113624;27;20409;-77
2022/05/08 10:32:58;;;;;;;114.00;103.50;;;15.40;65.60;;;;;;5110335;27;21778;-76
2022/05/08 10:35:26;;;;;;;117.22;106.82;;;15.50;62.70;;;;;;5103899;27;20040;-77
2022/05/08 10:38:20;;;;;;;115.32;104.72;;;15.50;62.30;;;;;;5127893;27;20139;-77
2022/05/08 10:40:47;;;;;;;115.70;105.33;;;15.60;62.40;;;;;;5117181;27;20055;-79
2022/05/08 10:43:30;;;;;;;115.28;104.97;;;15.60;62.00;;;;;;5108277;28;20517;-80
2022/05/08 10:46:22;;;;;;;117.43;106.97;;;15.70;61.20;;;;;;5088032;28;20056;-77
2022/05/08 10:48:51;;;;;;;116.18;105.70;;;15.80;63.70;;;;;;5089255;28;20049;-77
2022/05/08 10:51:18;;;;;;;118.53;107.70;;;15.80;62.10;;;;;;5122708;27;20087;-77
2022/05/08 10:53:46;;;;;;;119.97;109.03;;;15.90;61.70;;;;;;5115193;28;20518;-77
2022/05/08 10:56:14;;;;;;;117.72;107.43;;;16.00;61.60;;;;;;5115641;28;20058;-77
2022/05/08 10:58:50;;;;;;;118.43;108.10;;;16.00;61.90;;;;;;5114239;28;20123;-79
2022/05/08 11:01:18;;;;;;;119.68;109.05;;;16.10;61.60;;;;;;5116456;27;20044;-79
2022/05/08 11:03:45;;;;;;;120.60;109.85;;;16.20;61.50;;;;;;5115402;28;20161;-79
2022/05/08 11:06:20;;;;;;;122.90;110.47;;;16.30;61.70;;;;;;5114895;28;20048;-78
2022/05/08 11:08:47;;;;;;;;;;;16.30;60.90;;;;;;5115505;28;20048;-76
2022/05/08 11:11:14;;;;;;;119.70;109.07;;;16.40;62.30;;;;;;5115258;28;19935;-76
2022/05/08 11:13:47;;;;;;;119.93;109.38;;;16.50;61.60;;;;;;5114917;28;20048;-78
2022/05/08 11:16:29;;;;;;;121.72;110.75;;;16.50;61.30;;;;;;5098313;27;20059;-79
2022/05/08 11:19:00;;;;;;;120.43;109.93;;;16.60;60.40;;;;;;5095450;28;20051;-78
2022/05/08 11:21:27;;;;;;;121.50;110.85;;;16.70;60.20;;;;;;5094236;28;20059;-79
2022/05/08 11:23:55;;;;;;;120.78;110.60;;;16.80;59.80;;;;;;5128596;27;20056;-79
2022/05/08 11:26:28;;;;;;;121.90;111.53;;;16.90;60.20;;;;;;5057065;28;20131;-79
2022/05/08 11:28:55;;;;;;;121.80;111.38;;;17.00;60.60;;;;;;5073855;28;20163;-78
2022/05/08 11:31:24;;;;;;;120.80;110.50;;;17.10;59.90;;;;;;5075576;28;20080;-78
2022/05/08 11:36:37;;;;;;;;;;;17.20;57.10;;;;;;5074633;28;20049;-78
2022/05/08 11:39:06;;;;;;;122.85;112.30;;;17.30;62.10;;;;;;5074940;28;20400;-77
2022/05/08 11:41:35;;;;;;;121.53;110.78;;;17.40;58.60;;;;;;5085936;28;20055;-77
2022/05/08 11:44:12;;;;;;;121.97;111.57;;;17.40;58.30;;;;;;5094025;28;20150;-76
2022/05/08 11:46:44;;;;;;;123.10;112.75;;;17.50;57.70;;;;;;5113291;27;20048;-76
2022/05/08 11:49:15;;;;;;;122.53;112.13;;;17.60;58.30;;;;;;5112449;28;20571;-77
2022/05/08 11:51:45;;;;;;;121.72;111.55;;;17.70;58.00;;;;;;5110494;28;20147;-76
2022/05/08 11:54:20;;;;;;;123.35;112.68;;;17.80;57.30;;;;;;5108237;28;20525;-78
2022/05/08 11:56:47;;;;;;;123.22;113.05;;;17.90;57.00;;;;;;5107220;28;20557;-77
2022/05/08 11:59:18;;;;;;;122.57;112.15;;;17.90;56.90;;;;;;5114158;28;20557;-77
2022/05/08 12:01:50;;;;;;;123.55;112.82;;;18.00;57.00;;;;;;5112651;28;20059;-77
2022/05/08 12:04:26;;;;;;;122.18;112.00;;;18.10;56.50;;;;;;5122413;27;20065;-77
2022/05/08 12:07:04;;;;;;;124.43;114.20;;;18.10;56.40;;;;;;5074998;28;20057;-77
2022/05/08 12:09:32;;;;;;;124.72;114.38;;;18.30;56.00;;;;;;5088389;28;20052;-79
2022/05/08 12:12:21;;;;;;;122.65;111.90;;;18.40;55.80;;;;;;5093040;28;20131;-76
2022/05/08 12:14:48;;;;;;;123.18;113.25;;;18.40;55.00;;;;;;5093279;28;20127;-79
2022/05/08 12:17:16;;;;;;;125.50;115.32;;;18.50;54.50;;;;;;5092101;28;20040;-80
2022/05/08 12:19:50;;;;;;;122.57;112.45;;;18.50;55.20;;;;;;5093519;28;20040;-80
2022/05/08 12:22:19;;;;;;;123.27;113.10;;;18.60;54.40;;;;;;5094625;28;20048;-79
2022/05/08 12:24:46;;;;;;;124.47;113.97;;;18.70;54.30;;;;;;5094592;28;20709;-79
2022/05/08 12:27:13;;;;;;;126.32;116.10;;;18.70;53.80;;;;;;5092728;28;20139;-78
2022/05/08 12:29:43;;;;;;;128.57;117.03;;;18.80;54.00;;;;;;5094510;28;20126;-80
2022/05/08 12:32:10;;;;;;;127.00;114.88;;;18.90;53.70;;;;;;5094046;28;20194;-79
2022/05/08 12:34:39;;;;;;;126.65;116.60;;;18.90;53.00;;;;;;5093143;28;20790;-79
2022/05/08 12:37:06;;;;;;;127.05;116.80;;;19.00;52.40;;;;;;5093120;28;20057;-79
2022/05/08 12:39:34;;;;;;;126.45;116.18;;;19.10;52.50;;;;;;5091464;28;20045;-76
2022/05/08 12:42:01;;;;;;;126.30;116.22;;;19.20;52.90;;;;;;5092440;28;20040;-79
2022/05/08 12:44:28;;;;;;;126.30;116.20;;;19.30;53.30;;;;;;5083543;28;20111;-78
2022/05/08 12:46:56;;;;;;;125.97;115.95;;;19.40;52.80;;;;;;5092146;28;20048;-79
2022/05/08 12:49:22;;;;;;;127.00;117.00;;;19.50;52.70;;;;;;5105860;28;20157;-80
2022/05/08 12:51:49;;;;;;;124.95;114.75;;;19.60;51.70;;;;;;5111676;28;20052;-79
2022/05/08 12:54:16;;;;;;;125.10;115.05;;;19.70;51.60;;;;;;5112010;27;20053;-79